createdAt,value
2017-12-28T00:02:03.960Z,2.40
2017-12-28T00:04:30.948Z,3.23
2017-12-28T00:06:57.805Z,2.47
2017-12-28T00:09:24.948Z,2.40
2017-12-28T00:11:51.209Z,2.13
2017-12-28T00:14:17.620Z,2.33
2017-12-28T00:16:43.847Z,2.40
2017-12-28T00:19:10.113Z,2.47
2017-12-28T00:21:37.133Z,2.80
2017-12-28T00:24:03.489Z,2.17
2017-12-28T00:26:29.736Z,2.50
2017-12-28T00:28:56.012Z,2.87
2017-12-28T00:31:22.456Z,2.33
2017-12-28T00:33:48.695Z,2.50
2017-12-28T00:36:14.944Z,2.83
2017-12-28T00:38:41.344Z,2.60
2017-12-28T00:41:07.561Z,3.30
2017-12-28T00:43:33.752Z,3.10
2017-12-28T00:46:00.079Z,3.40
2017-12-28T00:48:26.281Z,3.23
2017-12-28T00:50:52.504Z,2.93
2017-12-28T00:53:18.866Z,3.87
2017-12-28T00:55:46.428Z,3.53
2017-12-28T00:58:12.848Z,4.17
2017-12-28T01:00:39.123Z,3.03
2017-12-28T01:03:06.106Z,3.30
2017-12-28T01:05:32.492Z,3.30
2017-12-28T01:07:58.733Z,4.20
2017-12-28T01:10:24.946Z,4.03
2017-12-28T01:12:51.264Z,3.90
2017-12-28T01:15:17.443Z,3.87
2017-12-28T01:17:43.666Z,3.97
2017-12-28T01:20:09.918Z,4.40
2017-12-28T01:22:36.119Z,4.93
2017-12-28T01:25:03.161Z,4.20
2017-12-28T01:27:29.542Z,3.80
2017-12-28T01:29:55.724Z,4.07
2017-12-28T01:32:21.933Z,4.23
2017-12-28T01:34:48.201Z,4.83
2017-12-28T01:37:14.419Z,5.00
2017-12-28T01:39:40.628Z,4.63
2017-12-28T01:42:07.081Z,4.87
2017-12-28T01:44:33.281Z,5.00
2017-12-28T01:46:59.449Z,4.63
2017-12-28T01:49:25.856Z,4.77
2017-12-28T01:51:52.113Z,5.57
2017-12-28T01:54:18.359Z,5.47
2017-12-28T01:56:44.537Z,6.20
2017-12-28T01:59:10.815Z,5.60
2017-12-28T02:01:37.013Z,5.33
2017-12-28T02:04:03.212Z,5.13
2017-12-28T02:06:29.435Z,4.93
2017-12-28T02:08:56.395Z,5.80
2017-12-28T02:11:22.636Z,5.20
2017-12-28T02:13:48.943Z,5.80
2017-12-28T02:16:15.175Z,7.03
2017-12-28T02:18:41.369Z,5.37
2017-12-28T02:21:07.669Z,6.23
2017-12-28T02:23:33.851Z,5.63
2017-12-28T02:26:00.069Z,6.97
2017-12-28T02:28:26.484Z,5.83
2017-12-28T02:30:53.529Z,6.43
2017-12-28T02:33:21.522Z,7.33
2017-12-28T02:35:47.739Z,6.40
2017-12-28T02:38:13.929Z,6.63
2017-12-28T02:40:40.108Z,6.53
2017-12-28T02:43:06.325Z,6.77
2017-12-28T02:45:33.281Z,6.60
2017-12-28T02:47:59.631Z,6.30
2017-12-28T02:50:25.853Z,6.97
2017-12-28T02:52:52.068Z,6.33
2017-12-28T02:55:18.307Z,7.00
2017-12-28T02:57:45.347Z,6.30
2017-12-28T03:00:12.292Z,7.20
2017-12-28T03:02:38.503Z,6.90
2017-12-28T03:05:04.831Z,5.70
2017-12-28T03:07:31.015Z,6.13
2017-12-28T03:09:57.963Z,6.90
2017-12-28T03:12:24.948Z,6.67
2017-12-28T03:14:51.134Z,7.30
2017-12-28T03:17:18.040Z,6.40
2017-12-28T03:19:44.298Z,7.20
2017-12-28T03:22:10.655Z,7.17
2017-12-28T03:24:36.851Z,7.83
2017-12-28T03:27:03.121Z,7.63
2017-12-28T03:29:29.468Z,7.67
2017-12-28T03:31:55.689Z,8.03
2017-12-28T03:34:21.872Z,7.73
2017-12-28T03:36:48.117Z,8.20
2017-12-28T03:39:14.534Z,9.07
2017-12-28T03:41:40.712Z,9.33
2017-12-28T03:44:07.585Z,8.00
2017-12-28T03:46:34.649Z,7.00
2017-12-28T03:49:00.868Z,6.77
2017-12-28T03:51:27.078Z,7.23
2017-12-28T03:53:53.352Z,7.10
2017-12-28T03:56:19.551Z,7.47
2017-12-28T03:58:45.746Z,8.30
2017-12-28T04:01:12.190Z,8.10
2017-12-28T04:03:39.163Z,6.90
2017-12-28T04:06:05.352Z,7.60
2017-12-28T04:08:32.300Z,6.73
2017-12-28T04:10:58.720Z,6.60
2017-12-28T04:13:24.956Z,5.83
2017-12-28T04:15:51.190Z,5.60
2017-12-28T04:18:17.548Z,6.43
2017-12-28T04:20:44.513Z,5.87
2017-12-28T04:23:10.707Z,4.20
2017-12-28T04:25:36.928Z,4.43
2017-12-28T04:28:03.167Z,4.10
2017-12-28T04:30:29.423Z,3.63
2017-12-28T04:32:56.384Z,4.20
2017-12-28T04:35:23.611Z,4.70
2017-12-28T04:37:49.876Z,4.70
2017-12-28T04:40:16.089Z,4.37
2017-12-28T04:42:42.508Z,4.40
2017-12-28T04:45:08.742Z,4.37
2017-12-28T04:47:34.977Z,4.50
2017-12-28T04:50:01.209Z,4.00
2017-12-28T04:52:27.451Z,4.53
2017-12-28T04:54:53.643Z,4.50
2017-12-28T04:57:19.857Z,4.60
2017-12-28T04:59:46.215Z,4.30
2017-12-28T05:02:12.442Z,4.27
2017-12-28T05:04:38.674Z,4.07
2017-12-28T05:07:05.802Z,5.63
2017-12-28T05:09:32.003Z,4.40
2017-12-28T05:11:58.946Z,4.30
2017-12-28T05:14:25.123Z,5.10
2017-12-28T05:16:51.355Z,4.40
2017-12-28T05:19:17.635Z,4.80
2017-12-28T05:21:44.055Z,4.97
2017-12-28T05:24:10.355Z,5.93
2017-12-28T05:26:36.543Z,4.80
2017-12-28T05:29:02.780Z,5.90
2017-12-28T05:31:29.263Z,6.67
2017-12-28T05:33:55.441Z,6.70
2017-12-28T05:36:23.721Z,6.13
2017-12-28T05:38:49.954Z,6.30
2017-12-28T05:41:16.232Z,5.97
2017-12-28T05:43:42.458Z,4.97
2017-12-28T05:46:08.696Z,4.30
2017-12-28T05:48:35.669Z,4.30
2017-12-28T05:51:01.980Z,4.77
2017-12-28T05:53:28.959Z,3.90
2017-12-28T05:55:55.155Z,3.93
2017-12-28T05:58:21.473Z,4.67
2017-12-28T06:00:47.671Z,3.50
2017-12-28T06:03:13.869Z,3.80
2017-12-28T06:05:40.239Z,2.87
2017-12-28T06:08:07.237Z,4.03
2017-12-28T06:10:33.482Z,4.13
2017-12-28T06:13:00.457Z,3.83
2017-12-28T06:15:27.049Z,4.90
2017-12-28T06:17:53.286Z,3.90
2017-12-28T06:20:19.486Z,3.97
2017-12-28T06:22:45.928Z,4.60
2017-12-28T06:25:12.148Z,3.43
2017-12-28T06:27:38.465Z,4.77
2017-12-28T06:30:04.848Z,3.57
2017-12-28T06:32:31.044Z,3.67
2017-12-28T06:34:57.209Z,3.67
2017-12-28T06:37:23.548Z,3.63
2017-12-28T06:39:49.715Z,3.70
2017-12-28T06:42:17.040Z,3.40
2017-12-28T06:44:43.299Z,4.63
2017-12-28T06:47:11.564Z,4.50
2017-12-28T06:49:41.072Z,4.60
2017-12-28T06:52:07.538Z,4.43
2017-12-28T06:54:33.770Z,4.90
2017-12-28T06:56:59.961Z,5.20
2017-12-28T06:59:26.272Z,5.20
2017-12-28T07:01:52.456Z,5.20
2017-12-28T07:04:18.776Z,5.00
2017-12-28T07:06:45.742Z,4.40
2017-12-28T07:09:12.142Z,5.73
2017-12-28T07:11:38.463Z,5.40
2017-12-28T07:14:04.684Z,5.80
2017-12-28T07:16:31.075Z,6.27
2017-12-28T07:18:58.586Z,5.43
2017-12-28T07:21:24.786Z,6.00
2017-12-28T07:23:51.102Z,5.60
2017-12-28T07:26:17.500Z,5.43
2017-12-28T07:28:43.882Z,4.87
2017-12-28T07:31:10.860Z,5.90
2017-12-28T07:33:37.036Z,5.40
2017-12-28T07:36:03.294Z,5.30
2017-12-28T07:38:29.518Z,5.70
2017-12-28T07:40:56.084Z,6.27
2017-12-28T07:43:23.268Z,6.50
2017-12-28T07:45:49.448Z,5.20
2017-12-28T07:48:15.624Z,5.30
2017-12-28T07:50:42.111Z,5.70
2017-12-28T07:53:08.278Z,4.83
2017-12-28T07:55:34.547Z,5.60
2017-12-28T07:58:00.968Z,5.07
2017-12-28T08:00:27.162Z,4.70
2017-12-28T08:02:53.327Z,5.17
2017-12-28T08:05:21.032Z,5.13
2017-12-28T08:07:47.240Z,6.00
2017-12-28T08:10:13.451Z,4.37
2017-12-28T08:12:39.671Z,4.73
2017-12-28T08:15:05.998Z,6.13
2017-12-28T08:17:32.199Z,4.13
2017-12-28T08:19:58.352Z,3.63
2017-12-28T08:22:24.688Z,3.90
2017-12-28T08:24:50.848Z,3.90
2017-12-28T08:27:17.061Z,4.70
2017-12-28T08:29:43.269Z,6.37
2017-12-28T08:32:09.529Z,6.83
2017-12-28T08:34:35.883Z,3.60
2017-12-28T08:37:02.048Z,4.10
2017-12-28T08:39:29.036Z,3.90
2017-12-28T08:41:55.215Z,4.00
2017-12-28T08:44:21.401Z,4.30
2017-12-28T08:46:47.649Z,4.30
2017-12-28T08:49:13.880Z,3.30
2017-12-28T08:51:40.043Z,3.37
2017-12-28T08:54:07.849Z,3.73
2017-12-28T08:56:34.148Z,3.00
2017-12-28T08:59:00.333Z,3.20
2017-12-28T09:01:26.476Z,2.53
2017-12-28T09:03:52.847Z,3.07
2017-12-28T09:06:19.756Z,3.13
2017-12-28T09:08:45.904Z,3.13
2017-12-28T09:11:12.820Z,4.17
2017-12-28T09:13:39.024Z,3.07
2017-12-28T09:16:05.936Z,3.10
2017-12-28T09:18:32.107Z,3.37
2017-12-28T09:20:58.456Z,3.20
2017-12-28T09:23:24.615Z,3.40
2017-12-28T09:25:51.596Z,3.50
2017-12-28T09:28:17.925Z,3.77
2017-12-28T09:30:44.116Z,2.53
2017-12-28T09:33:10.271Z,3.10
2017-12-28T09:35:37.239Z,3.47
2017-12-28T09:38:04.311Z,4.07
2017-12-28T09:40:30.462Z,4.40
2017-12-28T09:42:57.374Z,4.17
2017-12-28T09:45:23.552Z,4.47
2017-12-28T09:47:49.742Z,4.37
2017-12-28T09:50:16.384Z,3.90
2017-12-28T09:52:42.579Z,6.67
2017-12-28T09:55:08.799Z,2.90
2017-12-28T09:57:35.099Z,3.90
2017-12-28T10:00:01.311Z,4.60
2017-12-28T10:02:27.711Z,3.80
2017-12-28T10:04:54.611Z,3.33
2017-12-28T10:07:20.793Z,3.20
2017-12-28T10:09:47.224Z,3.00
2017-12-28T10:12:13.471Z,2.63
2017-12-28T10:14:40.394Z,4.40
2017-12-28T10:17:06.560Z,3.47
2017-12-28T10:19:32.840Z,4.17
2017-12-28T10:21:59.762Z,5.10
2017-12-28T10:24:25.953Z,5.63
2017-12-28T10:26:52.279Z,4.60
2017-12-28T10:29:18.464Z,5.90
2017-12-28T10:31:44.637Z,5.17
2017-12-28T10:34:10.908Z,6.00
2017-12-28T10:36:37.080Z,6.07
2017-12-28T10:39:03.313Z,5.63
2017-12-28T10:41:30.511Z,5.37
2017-12-28T10:43:56.770Z,5.37
2017-12-28T10:46:22.936Z,5.53
2017-12-28T10:48:49.124Z,5.03
2017-12-28T10:51:16.208Z,3.90
2017-12-28T10:53:42.410Z,4.70
2017-12-28T10:56:08.616Z,3.73
2017-12-28T10:58:35.398Z,5.37
2017-12-28T11:01:01.583Z,4.50
2017-12-28T11:03:27.746Z,5.20
2017-12-28T11:05:54.684Z,4.20
2017-12-28T11:08:20.955Z,4.93
2017-12-28T11:10:47.910Z,4.27
2017-12-28T11:13:15.110Z,3.13
2017-12-28T11:15:41.367Z,3.50
2017-12-28T11:18:08.373Z,3.50
2017-12-28T11:20:34.538Z,3.67
2017-12-28T11:23:01.278Z,4.23
2017-12-28T11:25:27.594Z,3.97
2017-12-28T11:27:53.773Z,4.67
2017-12-28T11:30:20.713Z,5.33
2017-12-28T11:32:47.061Z,4.43
2017-12-28T11:35:13.236Z,4.20
2017-12-28T11:37:39.393Z,5.40
2017-12-28T11:40:06.752Z,6.40
2017-12-28T11:42:33.272Z,6.30
2017-12-28T11:44:59.431Z,5.83
2017-12-28T11:47:25.649Z,5.17
2017-12-28T11:49:52.440Z,6.63
2017-12-28T11:52:21.546Z,5.17
2017-12-28T11:54:47.807Z,6.73
2017-12-28T11:57:20.916Z,6.30
2017-12-28T11:59:47.895Z,5.60
2017-12-28T12:02:14.727Z,4.30
2017-12-28T12:04:46.901Z,4.10
2017-12-28T12:07:13.097Z,4.53
2017-12-28T12:09:45.492Z,3.73
2017-12-28T12:12:12.461Z,4.23
2017-12-28T12:14:38.625Z,4.63
2017-12-28T12:17:04.895Z,4.50
2017-12-28T12:19:31.063Z,4.00
2017-12-28T12:21:57.967Z,4.50
2017-12-28T12:24:24.171Z,3.73
2017-12-28T12:26:50.338Z,4.03
2017-12-28T12:29:16.518Z,4.10
2017-12-28T12:31:43.200Z,4.47
2017-12-28T12:34:09.372Z,4.43
2017-12-28T12:36:35.529Z,5.20
2017-12-28T12:39:01.990Z,5.93
2017-12-28T12:41:29.207Z,4.67
2017-12-28T12:43:55.413Z,6.30
2017-12-28T12:46:21.568Z,7.90
2017-12-28T12:48:47.782Z,3.73
2017-12-28T12:51:13.987Z,5.50
2017-12-28T12:53:40.886Z,6.33
2017-12-28T12:56:08.147Z,4.23
2017-12-28T12:58:34.449Z,5.20
2017-12-28T13:01:00.631Z,4.33
2017-12-28T13:03:26.791Z,3.70
2017-12-28T13:05:53.156Z,4.57
2017-12-28T13:08:20.397Z,3.40
2017-12-28T13:10:46.587Z,3.90
2017-12-28T13:13:12.904Z,2.90
2017-12-28T13:15:39.108Z,2.77
2017-12-28T13:18:05.276Z,3.20
2017-12-28T13:20:31.531Z,2.80
2017-12-28T13:22:57.742Z,3.50
2017-12-28T13:25:23.980Z,3.50
2017-12-28T13:27:50.241Z,3.67
2017-12-28T13:30:16.610Z,3.77
2017-12-28T13:32:42.827Z,3.10
2017-12-28T13:35:09.004Z,3.60
2017-12-28T13:37:36.154Z,2.80
2017-12-28T13:40:02.355Z,2.53
2017-12-28T13:42:29.296Z,3.10
2017-12-28T13:44:55.480Z,2.57
2017-12-28T13:47:21.681Z,2.83
2017-12-28T13:49:47.856Z,3.67
2017-12-28T13:52:14.046Z,2.40
2017-12-28T13:54:40.224Z,2.80
2017-12-28T13:57:06.445Z,3.67
2017-12-28T13:59:33.403Z,4.93
2017-12-28T14:01:59.729Z,3.60
2017-12-28T14:04:25.948Z,4.00
2017-12-28T14:06:52.123Z,3.30
2017-12-28T14:09:19.204Z,3.20
2017-12-28T14:11:45.417Z,3.10
2017-12-28T14:14:11.632Z,3.40
2017-12-28T14:16:37.991Z,2.80
2017-12-28T14:19:04.210Z,3.40
2017-12-28T14:21:30.444Z,2.10
2017-12-28T14:23:56.626Z,2.73
2017-12-28T14:26:22.946Z,3.07
2017-12-28T14:28:49.118Z,3.37
2017-12-28T14:31:15.584Z,2.30
2017-12-28T14:33:42.507Z,3.00
2017-12-28T14:36:08.722Z,2.57
2017-12-28T14:38:35.623Z,3.00
2017-12-28T14:41:01.832Z,2.80
2017-12-28T14:43:28.013Z,2.73
2017-12-28T14:45:54.245Z,2.80
2017-12-28T14:48:20.452Z,4.10
2017-12-28T14:50:46.723Z,3.90
2017-12-28T14:53:13.652Z,3.10
2017-12-28T14:55:41.275Z,2.50
2017-12-28T14:58:07.445Z,2.63
2017-12-28T15:00:33.800Z,2.63
2017-12-28T15:03:00.006Z,2.83
2017-12-28T15:05:26.204Z,2.20
2017-12-28T15:07:52.446Z,3.00
2017-12-28T15:10:18.680Z,4.10
2017-12-28T15:12:45.619Z,3.80
2017-12-28T15:15:12.602Z,3.40
2017-12-28T15:17:38.779Z,4.07
2017-12-28T15:20:05.064Z,3.70
2017-12-28T15:22:31.235Z,3.10
2017-12-28T15:24:57.461Z,4.27
2017-12-28T15:27:23.676Z,4.27
2017-12-28T15:29:50.032Z,3.97
2017-12-28T15:32:16.958Z,4.40
2017-12-28T15:34:44.953Z,2.87
2017-12-28T15:37:11.140Z,3.00
2017-12-28T15:39:37.418Z,2.30
2017-12-28T15:42:03.620Z,3.40
2017-12-28T15:44:29.814Z,2.50
2017-12-28T15:46:55.991Z,3.60
2017-12-28T15:49:22.209Z,2.10
2017-12-28T15:51:48.390Z,3.00
2017-12-28T15:54:14.741Z,3.27
2017-12-28T15:56:40.939Z,2.50
2017-12-28T15:59:07.135Z,2.90
2017-12-28T16:01:33.296Z,4.10
2017-12-28T16:03:59.465Z,2.80
2017-12-28T16:06:25.676Z,2.70
2017-12-28T16:08:51.827Z,2.87
2017-12-28T16:11:18.228Z,2.70
2017-12-28T16:13:44.484Z,3.93
2017-12-28T16:16:10.649Z,3.00
2017-12-28T16:18:36.824Z,2.50
2017-12-28T16:21:03.218Z,2.60
2017-12-28T16:23:29.557Z,3.17
2017-12-28T16:25:56.076Z,3.03
2017-12-28T16:28:22.331Z,2.57
2017-12-28T16:30:48.891Z,3.83
2017-12-28T16:33:15.051Z,2.60
2017-12-28T16:35:41.326Z,3.10
2017-12-28T16:38:07.564Z,2.80
2017-12-28T16:40:33.843Z,3.70
2017-12-28T16:43:00.063Z,4.33
2017-12-28T16:45:26.353Z,8.47
2017-12-28T16:47:52.535Z,8.20
2017-12-28T16:50:19.466Z,10.10
2017-12-28T16:52:46.377Z,5.27
2017-12-28T16:55:12.580Z,7.60
2017-12-28T16:57:38.786Z,4.37
2017-12-28T17:00:04.974Z,5.93
2017-12-28T17:02:31.240Z,4.10
2017-12-28T17:04:57.425Z,4.70
2017-12-28T17:07:23.614Z,3.03
2017-12-28T17:09:49.781Z,4.10
2017-12-28T17:12:16.783Z,3.70
2017-12-28T17:14:42.944Z,7.23
2017-12-28T17:17:09.952Z,8.30
2017-12-28T17:19:36.117Z,7.30
2017-12-28T17:22:02.420Z,5.67
2017-12-28T17:24:28.572Z,2.87
2017-12-28T17:26:54.747Z,3.90
2017-12-28T17:29:20.910Z,3.40
2017-12-28T17:31:47.090Z,3.43
2017-12-28T17:34:13.255Z,3.90
2017-12-28T17:36:40.263Z,3.80
2017-12-28T17:39:06.436Z,3.30
2017-12-28T17:41:32.632Z,4.10
2017-12-28T17:43:58.867Z,3.40
2017-12-28T17:46:25.997Z,4.83
2017-12-28T17:48:52.204Z,3.63
2017-12-28T17:51:18.408Z,4.80
2017-12-28T17:53:44.631Z,10.00
2017-12-28T17:56:10.935Z,5.00
2017-12-28T17:58:37.101Z,7.20
2017-12-28T18:01:03.276Z,5.10
2017-12-28T18:03:30.556Z,4.50
2017-12-28T18:05:56.801Z,5.07
2017-12-28T18:08:23.711Z,5.33
2017-12-28T18:10:49.992Z,9.03
2017-12-28T18:13:16.196Z,6.70
2017-12-28T18:15:42.395Z,5.07
2017-12-28T18:18:08.562Z,4.90
2017-12-28T18:20:35.509Z,4.33
2017-12-28T18:23:01.671Z,4.53
2017-12-28T18:25:27.854Z,3.70
2017-12-28T18:27:54.026Z,5.13
2017-12-28T18:30:20.227Z,4.43
2017-12-28T18:32:46.455Z,4.67
2017-12-28T18:35:12.680Z,3.40
2017-12-28T18:37:39.589Z,3.90
2017-12-28T18:40:05.768Z,4.40
2017-12-28T18:42:31.943Z,3.73
2017-12-28T18:44:58.161Z,6.23
2017-12-28T18:47:24.376Z,4.10
2017-12-28T18:49:50.613Z,3.20
2017-12-28T18:52:16.975Z,5.50
2017-12-28T18:54:44.072Z,5.20
2017-12-28T18:57:10.483Z,7.40
2017-12-28T18:59:36.755Z,6.80
2017-12-28T19:02:03.676Z,5.40
2017-12-28T19:04:29.891Z,4.30
2017-12-28T19:06:56.824Z,5.20
2017-12-28T19:09:23.759Z,4.03
2017-12-28T19:11:49.946Z,4.10
2017-12-28T19:14:16.223Z,3.63
2017-12-28T19:16:42.480Z,3.60
2017-12-28T19:19:08.691Z,5.20
2017-12-28T19:21:34.979Z,5.00
2017-12-28T19:24:01.217Z,3.30
2017-12-28T19:26:27.596Z,4.00
2017-12-28T19:28:53.828Z,4.07
2017-12-28T19:31:20.029Z,3.47
2017-12-28T19:33:46.244Z,3.77
2017-12-28T19:36:12.489Z,3.00
2017-12-28T19:38:38.695Z,3.70
2017-12-28T19:41:04.932Z,3.57
2017-12-28T19:43:31.144Z,3.23
2017-12-28T19:45:58.104Z,3.07
2017-12-28T19:48:24.420Z,3.70
2017-12-28T19:50:50.621Z,3.70
2017-12-28T19:53:16.869Z,3.53
2017-12-28T19:55:43.116Z,3.03
2017-12-28T19:58:09.359Z,3.30
2017-12-28T20:00:35.608Z,3.87
2017-12-28T20:03:01.883Z,3.37
2017-12-28T20:05:28.848Z,3.13
2017-12-28T20:07:55.095Z,3.30
2017-12-28T20:10:21.321Z,3.23
2017-12-28T20:12:47.586Z,2.63
2017-12-28T20:15:13.779Z,3.40
2017-12-28T20:17:40.763Z,3.80
2017-12-28T20:20:06.947Z,2.77
2017-12-28T20:22:33.209Z,2.87
2017-12-28T20:24:59.825Z,3.23
2017-12-28T20:27:26.054Z,3.00
2017-12-28T20:29:53.079Z,3.27
2017-12-28T20:32:19.653Z,3.13
2017-12-28T20:34:45.838Z,3.30
2017-12-28T20:37:13.993Z,3.73
2017-12-28T20:39:40.172Z,3.23
2017-12-28T20:42:06.484Z,3.37
2017-12-28T20:44:33.592Z,3.30
2017-12-28T20:46:59.902Z,3.80
2017-12-28T20:49:26.065Z,4.43
2017-12-28T20:51:52.986Z,3.27
2017-12-28T20:54:19.150Z,2.63
2017-12-28T20:56:47.239Z,3.10
2017-12-28T20:59:13.410Z,3.03
2017-12-28T21:01:40.684Z,3.43
2017-12-28T21:04:06.895Z,2.97
2017-12-28T21:06:33.099Z,4.70
2017-12-28T21:08:59.260Z,3.07
2017-12-28T21:11:26.556Z,4.03
2017-12-28T21:13:52.829Z,3.60
2017-12-28T21:16:19.029Z,3.83
2017-12-28T21:18:46.051Z,3.33
2017-12-28T21:21:12.217Z,3.07
2017-12-28T21:23:38.459Z,3.47
2017-12-28T21:26:04.657Z,2.87
2017-12-28T21:28:30.841Z,3.57
2017-12-28T21:30:57.062Z,2.80
2017-12-28T21:33:23.267Z,2.77
2017-12-28T21:35:49.579Z,3.47
2017-12-28T21:38:15.844Z,3.60
2017-12-28T21:40:42.055Z,3.40
2017-12-28T21:43:08.288Z,2.73
2017-12-28T21:45:35.364Z,4.07
2017-12-28T21:48:01.548Z,3.13
2017-12-28T21:50:27.810Z,3.03
2017-12-28T21:52:54.011Z,2.87
2017-12-28T21:55:20.251Z,3.50
2017-12-28T21:57:46.427Z,3.50
2017-12-28T22:00:12.661Z,4.10
2017-12-28T22:02:38.945Z,3.53
2017-12-28T22:05:05.191Z,4.10
2017-12-28T22:07:31.380Z,3.63
2017-12-28T22:09:57.612Z,3.83
2017-12-28T22:12:23.812Z,3.63
2017-12-28T22:14:50.019Z,3.27
2017-12-28T22:17:16.306Z,2.90
2017-12-28T22:19:43.224Z,2.80
2017-12-28T22:22:10.177Z,4.83
2017-12-28T22:24:36.361Z,3.20
2017-12-28T22:27:02.557Z,2.87
2017-12-28T22:29:28.779Z,3.43
2017-12-28T22:31:55.084Z,3.50
2017-12-28T22:34:21.473Z,3.77
2017-12-28T22:36:47.673Z,2.57
2017-12-28T22:39:13.843Z,2.70
2017-12-28T22:41:40.149Z,3.30
2017-12-28T22:44:06.326Z,2.77
2017-12-28T22:46:32.519Z,3.63
2017-12-28T22:48:58.691Z,3.60
2017-12-28T22:51:24.911Z,3.13
2017-12-28T22:53:51.098Z,3.60
2017-12-28T22:56:18.295Z,3.47
2017-12-28T22:58:44.479Z,3.70
2017-12-28T23:01:10.651Z,2.87
2017-12-28T23:03:36.871Z,3.30
2017-12-28T23:06:03.138Z,3.90
2017-12-28T23:08:29.330Z,3.47
2017-12-28T23:10:55.507Z,3.40
2017-12-28T23:13:21.804Z,3.90
2017-12-28T23:15:47.997Z,3.33
2017-12-28T23:18:14.445Z,5.20
2017-12-28T23:20:40.650Z,5.13
2017-12-28T23:23:06.888Z,3.93
2017-12-28T23:25:33.139Z,3.40
2017-12-28T23:27:59.379Z,3.60
2017-12-28T23:30:25.589Z,3.20
2017-12-28T23:32:52.004Z,6.17
2017-12-28T23:35:18.214Z,4.17
2017-12-28T23:37:44.463Z,3.70
2017-12-28T23:40:10.720Z,3.90
2017-12-28T23:42:37.060Z,3.67
2017-12-28T23:45:03.267Z,3.60
2017-12-28T23:47:29.475Z,4.30
2017-12-28T23:49:55.795Z,4.40
2017-12-28T23:52:21.974Z,3.90
2017-12-28T23:54:48.195Z,3.53
2017-12-28T23:57:14.408Z,3.10
2017-12-28T23:59:40.762Z,4.30
